createdAt,value
2022-10-01T00:01:30.584Z,7.18
2022-10-01T00:04:15.916Z,8.85
2022-10-01T00:07:04.690Z,7.95
2022-10-01T00:09:50.668Z,8.05
2022-10-01T00:12:36.289Z,8.82
2022-10-01T00:15:22.054Z,7.78
2022-10-01T00:18:08.938Z,7.88
2022-10-01T00:20:54.833Z,8.48
2022-10-01T00:23:40.910Z,7.95
2022-10-01T00:26:29.611Z,9.70
2022-10-01T00:29:15.703Z,8.32
2022-10-01T00:32:02.198Z,7.90
2022-10-01T00:34:49.101Z,9.70
2022-10-01T00:37:37.756Z,8.80
2022-10-01T00:40:24.002Z,6.63
2022-10-01T00:43:28.946Z,8.65
2022-10-01T00:46:29.423Z,9.00
2022-10-01T00:49:20.462Z,8.88
2022-10-01T00:52:10.360Z,8.10
2022-10-01T00:55:01.923Z,10.88
2022-10-01T00:57:47.566Z,7.93
2022-10-01T01:00:33.288Z,6.78
2022-10-01T01:03:18.768Z,8.70
2022-10-01T01:09:09.773Z,9.65
2022-10-01T01:12:11.452Z,11.88
2022-10-01T01:15:23.932Z,11.15
2022-10-01T01:18:23.837Z,10.43
2022-10-01T01:21:35.214Z,9.13
2022-10-01T01:24:39.341Z,8.52
2022-10-01T01:27:31.567Z,7.97
2022-10-01T01:30:18.448Z,8.45
2022-10-01T01:33:12.117Z,8.10
2022-10-01T01:36:25.678Z,9.35
2022-10-01T01:39:16.911Z,11.75
2022-10-01T01:42:10.569Z,10.00
2022-10-01T01:45:00.043Z,8.73
2022-10-01T01:47:46.816Z,7.53
2022-10-01T01:50:38.336Z,7.10
2022-10-01T01:53:24.699Z,9.35
2022-10-01T01:56:10.763Z,9.45
2022-10-01T01:58:58.361Z,8.00
2022-10-01T02:01:44.759Z,8.27
2022-10-01T02:04:48.173Z,9.60
2022-10-01T02:07:54.705Z,8.63
2022-10-01T02:10:57.012Z,9.25
2022-10-01T02:13:55.230Z,9.60
2022-10-01T02:17:01.769Z,8.82
2022-10-01T02:20:07.797Z,7.90
2022-10-01T02:23:03.728Z,7.03
2022-10-01T02:25:56.474Z,11.77
2022-10-01T02:29:02.718Z,8.00
2022-10-01T02:31:56.299Z,7.82
2022-10-01T02:34:43.755Z,8.43
2022-10-01T02:37:29.544Z,8.68
2022-10-01T02:40:21.448Z,9.98
2022-10-01T02:43:12.751Z,8.13
2022-10-01T02:46:06.154Z,7.13
2022-10-01T02:48:51.988Z,6.00
2022-10-01T02:52:05.715Z,5.57
2022-10-01T02:55:17.927Z,5.53
2022-10-01T02:58:03.859Z,5.65
2022-10-01T03:00:49.552Z,4.25
2022-10-01T03:03:35.441Z,5.85
2022-10-01T03:06:20.750Z,3.08
2022-10-01T03:09:08.852Z,3.97
2022-10-01T03:11:55.355Z,3.60
2022-10-01T03:14:40.873Z,3.05
2022-10-01T03:17:26.908Z,4.80
2022-10-01T03:20:12.575Z,4.97
2022-10-01T03:22:58.714Z,4.35
2022-10-01T03:25:44.198Z,4.40
2022-10-01T03:28:30.526Z,6.55
2022-10-01T03:31:16.811Z,4.90
2022-10-01T03:34:02.177Z,3.55
2022-10-01T03:36:47.667Z,2.78
2022-10-01T03:39:35.693Z,2.75
2022-10-01T03:42:21.444Z,3.08
2022-10-01T03:45:07.280Z,2.92
2022-10-01T03:47:53.592Z,3.20
2022-10-01T03:50:39.261Z,2.72
2022-10-01T03:53:27.544Z,3.40
2022-10-01T03:56:13.363Z,2.40
2022-10-01T03:58:59.542Z,2.40
2022-10-01T04:01:45.609Z,3.90
2022-10-01T04:04:31.260Z,4.03
2022-10-01T04:07:16.935Z,2.67
2022-10-01T04:10:03.764Z,2.38
2022-10-01T04:12:49.494Z,3.03
2022-10-01T04:15:34.971Z,2.92
2022-10-01T04:18:21.624Z,2.58
2022-10-01T04:21:08.225Z,3.65
2022-10-01T04:23:54.623Z,2.88
2022-10-01T04:26:39.959Z,2.28
2022-10-01T04:29:26.041Z,2.28
2022-10-01T04:32:12.086Z,2.28
2022-10-01T04:34:57.493Z,2.08
2022-10-01T04:37:45.910Z,2.20
2022-10-01T04:40:34.958Z,2.08
2022-10-01T04:43:20.580Z,2.90
2022-10-01T04:46:07.172Z,3.33
2022-10-01T04:48:53.174Z,2.75
2022-10-01T04:51:38.419Z,2.05
2022-10-01T04:54:24.217Z,2.63
2022-10-01T04:57:09.531Z,2.33
2022-10-01T04:59:55.157Z,1.55
2022-10-01T05:02:41.545Z,2.88
2022-10-01T05:05:29.248Z,2.05
2022-10-01T05:08:14.777Z,1.50
2022-10-01T05:11:00.711Z,2.35
2022-10-01T05:13:46.310Z,1.67
2022-10-01T05:16:32.344Z,2.80
2022-10-01T05:19:17.764Z,1.60
2022-10-01T05:22:04.559Z,2.25
2022-10-01T05:24:49.989Z,3.30
2022-10-01T05:27:40.548Z,2.95
2022-10-01T05:30:25.997Z,2.80
2022-10-01T05:33:11.354Z,3.38
2022-10-01T05:35:58.408Z,3.50
2022-10-01T05:38:44.144Z,4.32
2022-10-01T05:41:30.073Z,4.05
2022-10-01T05:44:15.540Z,1.73
2022-10-01T05:47:02.458Z,3.90
2022-10-01T05:49:48.181Z,1.83
2022-10-01T05:52:33.515Z,2.33
2022-10-01T05:55:19.997Z,3.70
2022-10-01T05:58:08.058Z,2.95
2022-10-01T06:00:55.462Z,4.60
2022-10-01T06:03:41.038Z,3.65
2022-10-01T06:06:27.448Z,3.47
2022-10-01T06:09:13.742Z,1.50
2022-10-01T06:11:59.338Z,4.47
2022-10-01T06:14:44.798Z,3.22
2022-10-01T06:17:30.102Z,2.35
2022-10-01T06:20:20.852Z,2.92
2022-10-01T06:23:11.382Z,3.70
2022-10-01T06:26:00.703Z,1.33
2022-10-01T06:28:49.069Z,3.30
2022-10-01T06:31:35.267Z,4.32
2022-10-01T06:34:21.095Z,2.35
2022-10-01T06:37:06.674Z,2.63
2022-10-01T06:39:52.153Z,2.70
2022-10-01T06:42:37.718Z,2.92
2022-10-01T06:45:23.626Z,2.13
2022-10-01T06:48:14.711Z,3.53
2022-10-01T06:51:00.476Z,2.10
2022-10-01T06:53:45.825Z,2.45
2022-10-01T06:56:31.409Z,1.92
2022-10-01T06:59:16.958Z,3.28
2022-10-01T07:02:03.112Z,2.15
2022-10-01T07:04:48.477Z,3.97
2022-10-01T07:07:37.260Z,2.75
2022-10-01T07:10:23.404Z,3.10
2022-10-01T07:13:14.012Z,2.28
2022-10-01T07:15:59.472Z,2.83
2022-10-01T07:18:45.094Z,1.50
2022-10-01T07:21:30.475Z,2.65
2022-10-01T07:24:17.164Z,1.67
2022-10-01T07:27:07.499Z,1.75
2022-10-01T07:29:53.758Z,2.00
2022-10-01T07:32:44.018Z,1.95
2022-10-01T07:35:29.823Z,2.55
2022-10-01T07:38:15.957Z,1.98
2022-10-01T07:41:03.319Z,2.47
2022-10-01T07:43:50.156Z,1.73
2022-10-01T07:46:36.030Z,2.97
2022-10-01T07:49:21.563Z,1.63
2022-10-01T07:52:12.363Z,1.70
2022-10-01T07:54:59.314Z,3.92
2022-10-01T07:57:53.008Z,1.50
2022-10-01T08:00:39.124Z,1.45
2022-10-01T08:03:27.445Z,1.65
2022-10-01T08:06:13.409Z,2.50
2022-10-01T08:09:00.121Z,1.65
2022-10-01T08:11:45.798Z,1.77
2022-10-01T08:14:31.757Z,1.98
2022-10-01T08:17:17.385Z,3.40
2022-10-01T08:20:10.954Z,1.75
2022-10-01T08:23:07.221Z,5.00
2022-10-01T08:25:53.090Z,2.85
2022-10-01T08:28:38.503Z,3.22
2022-10-01T08:31:24.467Z,1.35
2022-10-01T08:34:09.633Z,1.40
2022-10-01T08:36:57.747Z,2.25
2022-10-01T08:39:43.346Z,1.48
2022-10-01T08:42:37.864Z,1.40
2022-10-01T08:45:33.142Z,2.47
2022-10-01T08:48:45.860Z,1.02
2022-10-01T08:51:55.840Z,2.10
2022-10-01T08:54:55.342Z,2.80
2022-10-01T08:57:48.651Z,1.63
2022-10-01T09:00:39.728Z,1.35
2022-10-01T09:03:27.671Z,1.50
2022-10-01T09:06:18.132Z,2.47
2022-10-01T09:09:23.286Z,1.17
2022-10-01T09:12:45.632Z,1.90
2022-10-01T09:16:07.755Z,1.73
2022-10-01T09:19:23.920Z,1.75
2022-10-01T09:25:25.192Z,1.02
2022-10-01T09:28:16.073Z,1.52
2022-10-01T09:31:21.628Z,1.13
2022-10-01T09:37:14.840Z,1.48
2022-10-01T09:40:34.990Z,1.67
2022-10-01T09:43:23.238Z,1.70
2022-10-01T09:46:17.515Z,0.85
2022-10-01T09:49:10.609Z,1.30
2022-10-01T09:52:02.810Z,1.15
2022-10-01T09:55:24.463Z,1.08
2022-10-01T09:58:14.792Z,3.55
2022-10-01T10:01:01.777Z,3.00
2022-10-01T10:03:55.465Z,1.23
2022-10-01T10:06:41.127Z,2.47
2022-10-01T10:09:32.236Z,1.00
2022-10-01T10:12:29.511Z,0.98
2022-10-01T10:15:22.019Z,1.73
2022-10-01T10:18:19.272Z,2.38
2022-10-01T10:21:16.537Z,1.70
2022-10-01T10:24:06.995Z,3.08
2022-10-01T10:26:55.922Z,1.77
2022-10-01T10:29:41.518Z,1.40
2022-10-01T10:32:28.223Z,2.17
2022-10-01T10:35:28.702Z,1.17
2022-10-01T10:38:19.132Z,1.50
2022-10-01T10:41:04.709Z,0.90
2022-10-01T10:43:50.796Z,1.60
2022-10-01T10:46:43.999Z,2.35
2022-10-01T10:49:33.972Z,1.58
2022-10-01T10:52:33.974Z,1.38
2022-10-01T10:55:31.137Z,1.50
2022-10-01T10:58:16.627Z,1.38
2022-10-01T11:01:13.719Z,2.95
2022-10-01T11:04:01.265Z,1.58
2022-10-01T11:06:56.029Z,2.05
2022-10-01T11:09:51.656Z,2.47
2022-10-01T11:13:04.995Z,2.25
2022-10-01T11:16:08.907Z,0.70
2022-10-01T11:19:18.192Z,1.92
2022-10-01T11:22:12.593Z,2.50
2022-10-01T11:25:18.384Z,1.45
2022-10-01T11:28:20.812Z,4.03
2022-10-01T11:31:30.539Z,2.50
2022-10-01T11:34:43.798Z,3.08
2022-10-01T11:37:34.879Z,2.33
2022-10-01T11:40:38.777Z,1.63
2022-10-01T11:43:33.003Z,2.42
2022-10-01T11:46:30.868Z,1.85
2022-10-01T11:49:34.565Z,1.38
2022-10-01T11:52:41.489Z,1.67
2022-10-01T11:55:54.715Z,5.45
2022-10-01T11:59:01.624Z,1.35
2022-10-01T12:02:15.279Z,3.08
2022-10-01T12:05:11.628Z,2.75
2022-10-01T12:08:38.383Z,2.28
2022-10-01T12:11:35.961Z,1.90
2022-10-01T12:14:31.557Z,1.13
2022-10-01T12:17:30.306Z,1.30
2022-10-01T12:20:27.393Z,5.05
2022-10-01T12:23:18.107Z,1.70
2022-10-01T12:26:30.134Z,2.13
2022-10-01T12:29:41.458Z,2.72
2022-10-01T12:33:07.791Z,1.20
2022-10-01T12:39:09.158Z,2.40
2022-10-01T12:42:18.983Z,1.30
2022-10-01T12:45:32.258Z,1.35
2022-10-01T12:48:25.539Z,1.58
2022-10-01T12:51:38.605Z,3.67
2022-10-01T12:54:49.042Z,2.92
2022-10-01T12:57:47.126Z,1.30
2022-10-01T13:00:42.458Z,0.63
2022-10-01T13:03:46.345Z,0.77
2022-10-01T13:06:57.989Z,1.17
2022-10-01T13:10:08.193Z,1.25
2022-10-01T13:13:03.092Z,0.40
2022-10-01T13:18:59.984Z,0.93
2022-10-01T13:22:11.605Z,8.40
2022-10-01T13:25:15.697Z,1.65
2022-10-01T13:28:17.189Z,2.45
2022-10-01T13:31:15.091Z,0.93
2022-10-01T13:34:01.545Z,1.30
2022-10-01T13:36:47.292Z,0.85
2022-10-01T13:39:38.871Z,0.60
2022-10-01T13:42:32.992Z,1.15
2022-10-01T13:45:31.321Z,1.08
2022-10-01T13:48:34.542Z,1.20
2022-10-01T13:51:20.399Z,1.50
2022-10-01T13:54:18.580Z,2.17
2022-10-01T13:57:08.877Z,0.52
2022-10-01T14:00:00.304Z,1.85
2022-10-01T14:03:04.317Z,1.20
2022-10-01T14:05:57.610Z,0.68
2022-10-01T14:08:54.689Z,1.38
2022-10-01T14:12:03.451Z,1.35
2022-10-01T14:15:21.184Z,1.30
2022-10-01T14:18:21.323Z,1.50
2022-10-01T14:21:34.692Z,0.90
2022-10-01T14:24:36.297Z,0.57
2022-10-01T14:27:54.245Z,0.50
2022-10-01T14:31:01.354Z,0.70
2022-10-01T14:34:05.591Z,0.73
2022-10-01T14:36:53.526Z,1.58
2022-10-01T14:39:39.118Z,1.88
2022-10-01T14:42:25.032Z,0.65
2022-10-01T14:45:18.622Z,1.23
2022-10-01T14:48:09.756Z,2.88
2022-10-01T14:50:59.279Z,2.45
2022-10-01T14:53:45.198Z,2.33
2022-10-01T14:56:30.771Z,1.13
2022-10-01T14:59:40.029Z,0.85
2022-10-01T15:02:26.586Z,0.70
2022-10-01T15:05:34.133Z,0.47
2022-10-01T15:08:23.938Z,1.30
2022-10-01T15:11:22.244Z,1.23
2022-10-01T15:14:15.069Z,1.55
2022-10-01T15:17:05.718Z,0.68
2022-10-01T15:19:56.280Z,1.98
2022-10-01T15:22:44.725Z,0.85
2022-10-01T15:25:32.409Z,1.25
2022-10-01T15:28:32.954Z,0.80
2022-10-01T15:31:21.581Z,1.05
2022-10-01T15:34:15.580Z,0.95
2022-10-01T15:37:01.889Z,0.52
2022-10-01T15:39:49.570Z,0.45
2022-10-01T15:42:35.640Z,0.90
2022-10-01T15:45:25.858Z,0.73
2022-10-01T15:48:29.166Z,1.08
2022-10-01T15:51:27.656Z,1.23
2022-10-01T15:54:15.615Z,1.45
2022-10-01T15:57:02.252Z,1.60
2022-10-01T15:59:50.506Z,0.82
2022-10-01T16:02:36.259Z,0.90
2022-10-01T16:05:37.556Z,1.33
2022-10-01T16:08:26.315Z,4.38
2022-10-01T16:11:23.643Z,1.05
2022-10-01T16:14:31.541Z,0.93
2022-10-01T16:17:16.931Z,0.85
2022-10-01T16:20:33.100Z,0.90
2022-10-01T16:23:47.970Z,1.10
2022-10-01T16:26:38.167Z,3.92
2022-10-01T16:29:25.561Z,2.13
2022-10-01T16:32:14.909Z,3.55
2022-10-01T16:35:25.291Z,2.58
2022-10-01T16:38:10.927Z,2.00
2022-10-01T16:40:56.287Z,1.20
2022-10-01T16:43:42.267Z,1.77
2022-10-01T16:46:27.753Z,1.20
2022-10-01T16:49:15.050Z,1.35
2022-10-01T16:52:00.473Z,2.25
2022-10-01T16:54:47.529Z,0.73
2022-10-01T16:57:32.768Z,5.38
2022-10-01T17:00:20.164Z,1.73
2022-10-01T17:03:09.062Z,1.35
2022-10-01T17:05:54.393Z,0.95
2022-10-01T17:08:39.844Z,1.92
2022-10-01T17:11:26.951Z,1.95
2022-10-01T17:14:18.324Z,0.98
2022-10-01T17:17:03.930Z,1.58
2022-10-01T17:19:49.324Z,2.67
2022-10-01T17:22:34.887Z,1.70
2022-10-01T17:25:23.515Z,1.38
2022-10-01T17:28:13.938Z,0.98
2022-10-01T17:30:59.840Z,1.00
2022-10-01T17:33:45.632Z,1.67
2022-10-01T17:36:31.556Z,1.75
2022-10-01T17:39:16.805Z,2.92
2022-10-01T17:42:02.480Z,2.08
2022-10-01T17:44:47.816Z,1.67
2022-10-01T17:47:33.841Z,1.92
2022-10-01T17:50:19.346Z,1.27
2022-10-01T17:53:04.699Z,2.05
2022-10-01T17:55:50.469Z,1.92
2022-10-01T17:58:36.219Z,1.63
2022-10-01T18:01:22.344Z,2.70
2022-10-01T18:04:12.399Z,1.73
2022-10-01T18:06:59.812Z,2.15
2022-10-01T18:09:46.132Z,1.75
2022-10-01T18:12:33.016Z,4.05
2022-10-01T18:15:20.884Z,2.97
2022-10-01T18:19:31.140Z,7.10
2022-10-01T18:21:13.696Z,6.38
2022-10-01T18:24:03.975Z,4.15
2022-10-01T18:26:50.626Z,6.20
2022-10-01T18:29:36.101Z,4.50
2022-10-01T18:32:24.411Z,5.35
2022-10-01T18:35:25.368Z,2.92
2022-10-01T18:38:29.722Z,2.17
2022-10-01T18:41:36.435Z,2.63
2022-10-01T18:44:23.825Z,4.18
2022-10-01T18:47:15.714Z,2.45
2022-10-01T18:50:18.363Z,2.60
2022-10-01T18:53:18.324Z,2.90
2022-10-01T18:56:13.198Z,1.30
2022-10-01T18:59:18.539Z,2.10
2022-10-01T19:02:16.184Z,3.53
2022-10-01T19:05:39.540Z,2.13
2022-10-01T19:08:49.542Z,2.08
2022-10-01T19:12:12.400Z,2.05
2022-10-01T19:15:22.811Z,1.10
2022-10-01T19:18:17.748Z,1.83
2022-10-01T19:21:31.722Z,5.68
2022-10-01T19:24:54.859Z,7.63
2022-10-01T19:28:00.698Z,3.45
2022-10-01T19:30:48.733Z,4.28
2022-10-01T19:33:42.105Z,4.72
2022-10-01T19:36:34.816Z,3.05
2022-10-01T19:39:25.876Z,2.42
2022-10-01T19:42:21.507Z,1.73
2022-10-01T19:45:29.699Z,3.03
2022-10-01T19:48:26.291Z,1.85
2022-10-01T19:51:04.354Z,2.47
2022-10-01T19:54:01.086Z,2.28
2022-10-01T19:56:51.361Z,2.00
2022-10-01T19:59:37.235Z,2.58
2022-10-01T20:02:39.976Z,1.67
2022-10-01T20:05:30.067Z,1.42
2022-10-01T20:08:25.092Z,1.50
2022-10-01T20:11:32.016Z,2.15
2022-10-01T20:14:51.107Z,2.22
2022-10-01T20:18:25.746Z,2.60
2022-10-01T20:21:16.239Z,5.30
2022-10-01T20:24:17.209Z,3.05
2022-10-01T20:27:15.044Z,4.18
2022-10-01T20:30:07.540Z,3.00
2022-10-01T20:33:07.293Z,1.92
2022-10-01T20:36:14.009Z,2.10
2022-10-01T20:39:21.498Z,2.17
2022-10-01T20:42:15.846Z,2.08
2022-10-01T20:45:03.898Z,4.55
2022-10-01T20:47:54.619Z,2.63
2022-10-01T20:50:45.040Z,2.47
2022-10-01T20:54:05.683Z,1.75
2022-10-01T20:57:03.341Z,2.33
2022-10-01T20:59:53.289Z,2.83
2022-10-01T21:02:42.669Z,3.10
2022-10-01T21:05:44.389Z,4.22
2022-10-01T21:08:51.687Z,1.67
2022-10-01T21:12:04.925Z,3.97
2022-10-01T21:14:55.690Z,3.03
2022-10-01T21:17:57.575Z,5.50
2022-10-01T21:21:16.051Z,3.33
2022-10-01T21:24:13.342Z,4.88
2022-10-01T21:27:16.879Z,3.22
2022-10-01T21:30:14.248Z,6.03
2022-10-01T21:33:22.650Z,6.53
2022-10-01T21:36:27.074Z,8.40
2022-10-01T21:39:31.928Z,5.00
2022-10-01T21:42:27.074Z,5.40
2022-10-01T21:45:22.232Z,3.97
2022-10-01T21:51:28.077Z,2.80
2022-10-01T21:54:38.710Z,5.00
2022-10-01T21:57:53.360Z,4.03
2022-10-01T22:00:38.859Z,3.03
2022-10-01T22:03:41.082Z,4.93
2022-10-01T22:06:34.067Z,7.80
2022-10-01T22:09:32.609Z,6.13
2022-10-01T22:12:19.064Z,4.22
2022-10-01T22:15:21.957Z,4.75
2022-10-01T22:18:16.124Z,6.13
2022-10-01T22:21:07.172Z,3.63
2022-10-01T22:24:01.834Z,5.30
2022-10-01T22:26:54.012Z,6.43
2022-10-01T22:29:46.428Z,6.78
2022-10-01T22:32:41.936Z,6.05
2022-10-01T22:35:59.335Z,4.55
2022-10-01T22:38:53.870Z,4.63
2022-10-01T22:41:49.482Z,5.53
2022-10-01T22:44:34.890Z,6.05
2022-10-01T22:47:39.016Z,5.00
2022-10-01T22:50:50.056Z,9.45
2022-10-01T22:53:49.426Z,3.05
2022-10-01T22:56:40.134Z,6.90
2022-10-01T23:00:01.665Z,6.28
2022-10-01T23:03:05.708Z,4.80
2022-10-01T23:06:08.137Z,8.63
2022-10-01T23:09:17.637Z,3.45
2022-10-01T23:12:14.870Z,6.95
2022-10-01T23:15:16.768Z,5.53
2022-10-01T23:18:34.442Z,7.10
2022-10-01T23:21:40.216Z,4.55
2022-10-01T23:25:03.169Z,5.22
2022-10-01T23:27:59.883Z,7.55
2022-10-01T23:31:14.396Z,6.80
2022-10-01T23:34:17.965Z,5.20
2022-10-01T23:37:18.522Z,4.45
2022-10-01T23:40:21.269Z,6.40
2022-10-01T23:43:11.509Z,4.50
2022-10-01T23:46:23.868Z,4.47
2022-10-01T23:49:17.311Z,5.63
2022-10-01T23:52:19.110Z,7.20
2022-10-01T23:55:59.977Z,5.05
2022-10-01T23:58:51.890Z,7.20
